Map

Track Data

SID SEASON NUMBER BASIN SUBBASIN NAME ISO_TIME NATURE LAT LON WMO_WIND WMO_PRES WMO_AGENCY TRACK_TYPE DIST2LAND LANDFALL IFLAG USA_AGENCY USA_ATCF_ID USA_LAT USA_LON USA_RECORD USA_STATUS USA_WIND USA_PRES USA_SSHS USA_R34_NE USA_R34_SE USA_R34_SW USA_R34_NW USA_R50_NE USA_R50_SE USA_R50_SW USA_R50_NW USA_R64_NE USA_R64_SE USA_R64_SW USA_R64_NW USA_POCI USA_ROCI USA_RMW USA_EYE TOKYO_LAT TOKYO_LON TOKYO_GRADE TOKYO_WIND TOKYO_PRES TOKYO_R50_DIR TOKYO_R50_LONG TOKYO_R50_SHORT TOKYO_R30_DIR TOKYO_R30_LONG TOKYO_R30_SHORT TOKYO_LAND CMA_LAT CMA_LON CMA_CAT CMA_WIND CMA_PRES HKO_LAT HKO_LON HKO_CAT HKO_WIND HKO_PRES NEWDELHI_LAT NEWDELHI_LON NEWDELHI_GRADE NEWDELHI_WIND NEWDELHI_PRES NEWDELHI_CI NEWDELHI_DP NEWDELHI_POCI REUNION_LAT REUNION_LON REUNION_TYPE REUNION_WIND REUNION_PRES REUNION_TNUM REUNION_CI REUNION_RMW REUNION_R34_NE REUNION_R34_SE REUNION_R34_SW REUNION_R34_NW REUNION_R50_NE REUNION_R50_SE REUNION_R50_SW REUNION_R50_NW REUNION_R64_NE REUNION_R64_SE REUNION_R64_SW REUNION_R64_NW BOM_LAT BOM_LON BOM_TYPE BOM_WIND BOM_PRES BOM_TNUM BOM_CI BOM_RMW BOM_R34_NE BOM_R34_SE BOM_R34_SW BOM_R34_NW BOM_R50_NE BOM_R50_SE BOM_R50_SW BOM_R50_NW BOM_R64_NE BOM_R64_SE BOM_R64_SW BOM_R64_NW BOM_ROCI BOM_POCI BOM_EYE BOM_POS_METHOD BOM_PRES_METHOD NADI_LAT NADI_LON NADI_CAT NADI_WIND NADI_PRES WELLINGTON_LAT WELLINGTON_LON WELLINGTON_WIND WELLINGTON_PRES DS824_LAT DS824_LON DS824_STAGE DS824_WIND DS824_PRES TD9636_LAT TD9636_LON TD9636_STAGE TD9636_WIND TD9636_PRES TD9635_LAT TD9635_LON TD9635_WIND TD9635_PRES TD9635_ROCI NEUMANN_LAT NEUMANN_LON NEUMANN_CLASS NEUMANN_WIND NEUMANN_PRES MLC_LAT MLC_LON MLC_CLASS MLC_WIND MLC_PRES USA_GUST BOM_GUST BOM_GUST_PER REUNION_GUST REUNION_GUST_PER USA_SEAHGT USA_SEARAD_NE USA_SEARAD_SE USA_SEARAD_SW USA_SEARAD_NW STORM_SPEED STORM_DIR
1992271N26291 1992 99 NA NA EARL 1992-09-26 18:00:00 TS 26.2000 -69.1000 25 1009 hurdat_atl main 685 612 O_____________ hurdat_atl AL091992 26.2000 -69.1000 TD 25 1009 -1 17 250
1992271N26291 1992 99 NA NA EARL 1992-09-26 21:00:00 TS 25.9163 -69.9742 main 607 560 P_____________ AL091992 25.9163 -69.9742 TD 25 1008 -1 16 255
1992271N26291 1992 99 NA NA EARL 1992-09-27 00:00:00 TS 25.8000 -70.8000 25 1008 hurdat_atl main 560 545 O_____________ hurdat_atl AL091992 25.8000 -70.8000 TD 25 1008 -1 14 272
1992271N26291 1992 99 NA NA EARL 1992-09-27 03:00:00 TS 25.9668 -71.5569 main 555 550 P_____________ AL091992 25.9668 -71.5569 TD 25 1007 -1 14 290
1992271N26291 1992 99 NA NA EARL 1992-09-27 06:00:00 TS 26.3000 -72.3000 25 1007 hurdat_atl main 574 525 O_____________ hurdat_atl AL091992 26.3000 -72.3000 TD 25 1007 -1 15 296
1992271N26291 1992 99 NA NA EARL 1992-09-27 09:00:00 TS 26.6347 -73.0926 main 516 460 P_____________ AL091992 26.6347 -73.0926 TD 27 1006 -1 16 296
1992271N26291 1992 99 NA NA EARL 1992-09-27 12:00:00 TS 27.0000 -73.9000 30 1006 hurdat_atl main 460 417 O_____________ hurdat_atl AL091992 27.0000 -73.9000 TD 30 1006 -1 16 297
1992271N26291 1992 99 NA NA EARL 1992-09-27 15:00:00 TS 27.3801 -74.7371 main 417 382 P_____________ AL091992 27.3801 -74.7371 TD 30 1004 -1 16 296
1992271N26291 1992 99 NA NA EARL 1992-09-27 18:00:00 TS 27.7000 -75.5000 30 1003 hurdat_atl main 382 361 O_____________ hurdat_atl AL091992 27.7000 -75.5000 TD 30 1003 -1 13 293
1992271N26291 1992 99 NA NA EARL 1992-09-27 21:00:00 TS 27.8793 -76.0884 main 365 350 P_____________ AL091992 27.8793 -76.0884 TD 30 1003 -1 10 287
1992271N26291 1992 99 NA NA EARL 1992-09-28 00:00:00 TS 28.0000 -76.6000 30 1004 hurdat_atl main 352 319 O_____________ hurdat_atl AL091992 28.0000 -76.6000 TD 30 1004 -1 10 286
1992271N26291 1992 99 NA NA EARL 1992-09-28 03:00:00 TS 28.1499 -77.1651 main 310 274 P_____________ AL091992 28.1499 -77.1651 TD 30 1004 -1 10 287
1992271N26291 1992 99 NA NA EARL 1992-09-28 06:00:00 TS 28.3000 -77.7000 30 1004 hurdat_atl main 274 224 O_____________ hurdat_atl AL091992 28.3000 -77.7000 TD 30 1004 -1 9 288
1992271N26291 1992 99 NA NA EARL 1992-09-28 09:00:00 TS 28.4499 -78.1876 main 224 185 P_____________ AL091992 28.4499 -78.1876 TD 30 1004 -1 8 291
1992271N26291 1992 99 NA NA EARL 1992-09-28 12:00:00 TS 28.6000 -78.6000 30 1004 hurdat_atl main 185 157 O_____________ hurdat_atl AL091992 28.6000 -78.6000 TD 30 1004 -1 7 294
1992271N26291 1992 99 NA NA EARL 1992-09-28 15:00:00 TS 28.7499 -78.9525 main 147 134 P_____________ AL091992 28.7499 -78.9525 TD 30 1004 -1 6 300
1992271N26291 1992 99 NA NA EARL 1992-09-28 18:00:00 TS 28.9000 -79.2000 30 1004 hurdat_atl main 134 129 O_____________ hurdat_atl AL091992 28.9000 -79.2000 TD 30 1004 -1 5 312
1992271N26291 1992 99 NA NA EARL 1992-09-28 21:00:00 TS 29.0574 -79.3376 main 134 126 P_____________ AL091992 29.0574 -79.3376 TD 30 1004 -1 3 330
1992271N26291 1992 99 NA NA EARL 1992-09-29 00:00:00 TS 29.2000 -79.4000 30 1004 hurdat_atl main 132 132 O_____________ hurdat_atl AL091992 29.2000 -79.4000 TD 30 1004 -1 3 332
1992271N26291 1992 99 NA NA EARL 1992-09-29 03:00:00 TS 29.3000 -79.4800 main 132 132 P_____________ AL091992 29.3000 -79.4800 TD 30 1003 -1 2 335
1992271N26291 1992 99 NA NA EARL 1992-09-29 06:00:00 TS 29.4000 -79.5000 30 1003 hurdat_atl main 137 137 O_____________ hurdat_atl AL091992 29.4000 -79.5000 TD 30 1003 -1 3 11
1992271N26291 1992 99 NA NA EARL 1992-09-29 09:00:00 TS 29.5575 -79.4226 main 155 155 P_____________ AL091992 29.5575 -79.4226 TD 32 1003 -1 3 30
1992271N26291 1992 99 NA NA EARL 1992-09-29 12:00:00 TS 29.7000 -79.3000 35 1003 hurdat_atl main 168 168 O_____________ hurdat_atl AL091992 29.7000 -79.3000 TS 35 1003 0 3 41
1992271N26291 1992 99 NA NA EARL 1992-09-29 15:00:00 TS 29.7650 -79.2074 main 182 182 P_____________ AL091992 29.7650 -79.2074 TS 37 1003 0 2 60
1992271N26291 1992 99 NA NA EARL 1992-09-29 18:00:00 TS 29.8000 -79.1000 40 1003 hurdat_atl main 190 190 O_____________ hurdat_atl AL091992 29.8000 -79.1000 TS 40 1003 0 2 66
1992271N26291 1992 99 NA NA EARL 1992-09-29 21:00:00 TS 29.8498 -78.9874 main 199 199 P_____________ AL091992 29.8498 -78.9874 TS 40 1002 0 3 69
1992271N26291 1992 99 NA NA EARL 1992-09-30 00:00:00 TS 29.9000 -78.8000 40 1002 hurdat_atl main 221 221 O_____________ hurdat_atl AL091992 29.9000 -78.8000 TS 40 1002 0 4 77
1992271N26291 1992 99 NA NA EARL 1992-09-30 03:00:00 TS 29.9499 -78.5025 main 248 248 P_____________ AL091992 29.9499 -78.5025 TS 40 1001 0 6 81
1992271N26291 1992 99 NA NA EARL 1992-09-30 06:00:00 TS 30.0000 -78.1000 40 1000 hurdat_atl main 286 286 O_____________ hurdat_atl AL091992 30.0000 -78.1000 TS 40 1000 0 8 81
1992271N26291 1992 99 NA NA EARL 1992-09-30 09:00:00 TS 30.0723 -77.6453 main 332 332 P_____________ AL091992 30.0723 -77.6453 TS 42 999 0 9 83
1992271N26291 1992 99 NA NA EARL 1992-09-30 12:00:00 TS 30.1000 -77.1000 45 999 hurdat_atl main 374 374 O_____________ hurdat_atl AL091992 30.1000 -77.1000 TS 45 999 0 10 93
1992271N26291 1992 99 NA NA EARL 1992-09-30 15:00:00 TS 30.0224 -76.4797 main 422 422 P_____________ AL091992 30.0224 -76.4797 TS 47 998 0 11 100
1992271N26291 1992 99 NA NA EARL 1992-09-30 18:00:00 TS 29.9000 -75.8000 50 997 hurdat_atl main 481 481 O_____________ hurdat_atl AL091992 29.9000 -75.8000 TS 50 997 0 12 100
1992271N26291 1992 99 NA NA EARL 1992-09-30 21:00:00 TS 29.8147 -75.1079 main 532 532 P_____________ AL091992 29.8147 -75.1079 TS 50 996 0 12 99
1992271N26291 1992 99 NA NA EARL 1992-10-01 00:00:00 TS 29.7000 -74.4000 50 996 hurdat_atl main 578 578 O_____________ hurdat_atl AL091992 29.7000 -74.4000 TS 50 996 0 13 104
1992271N26291 1992 99 NA NA EARL 1992-10-01 03:00:00 TS 29.5146 -73.7000 main 636 636 P_____________ AL091992 29.5146 -73.7000 TS 50 996 0 13 108
1992271N26291 1992 99 NA NA EARL 1992-10-01 06:00:00 TS 29.3000 -73.0000 50 997 hurdat_atl main 681 681 O_____________ hurdat_atl AL091992 29.3000 -73.0000 TS 50 997 0 13 108
1992271N26291 1992 99 NA NA EARL 1992-10-01 09:00:00 TS 29.1072 -72.2929 main 719 719 P_____________ AL091992 29.1072 -72.2929 TS 50 997 0 13 108
1992271N26291 1992 99 NA NA EARL 1992-10-01 12:00:00 TS 28.9000 -71.6000 50 998 hurdat_atl main 762 762 O_____________ hurdat_atl AL091992 28.9000 -71.6000 TS 50 998 0 13 111
1992271N26291 1992 99 NA NA EARL 1992-10-01 15:00:00 TS 28.6496 -70.9426 main 804 804 P_____________ AL091992 28.6496 -70.9426 TS 52 997 0 12 114
1992271N26291 1992 99 NA NA EARL 1992-10-01 18:00:00 TS 28.4000 -70.3000 55 996 hurdat_atl main 847 845 O_____________ hurdat_atl AL091992 28.4000 -70.3000 TS 55 996 0 12 112
1992271N26291 1992 99 NA NA EARL 1992-10-01 21:00:00 TS 28.1925 -69.6278 main 854 848 P_____________ AL091992 28.1925 -69.6278 TS 55 993 0 12 109
1992271N26291 1992 99 NA NA EARL 1992-10-02 00:00:00 TS 28.0000 -69.0000 55 990 hurdat_atl main 860 860 O_____________ hurdat_atl AL091992 28.0000 -69.0000 TS 55 990 0 11 112
1992271N26291 1992 99 NA NA EARL 1992-10-02 03:00:00 TS 27.7771 -68.4775 main 866 862 P_____________ AL091992 27.7771 -68.4775 TS 52 991 0 10 114
1992271N26291 1992 99 NA NA EARL 1992-10-02 06:00:00 TS 27.6000 -68.0000 50 992 hurdat_atl main 875 875 O_____________ hurdat_atl AL091992 27.6000 -68.0000 TS 50 992 0 9 106
1992271N26291 1992 99 NA NA EARL 1992-10-02 09:00:00 TS 27.5274 -67.4928 main 897 897 P_____________ AL091992 27.5274 -67.4928 TS 47 996 0 9 96
1992271N26291 1992 99 NA NA EARL 1992-10-02 12:00:00 TS 27.5000 -67.0000 45 1000 hurdat_atl main 929 929 O_____________ hurdat_atl AL091992 27.5000 -67.0000 TS 45 1000 0 8 96
1992271N26291 1992 99 NA NA EARL 1992-10-02 15:00:00 TS 27.4348 -66.5424 main 941 941 P_____________ AL091992 27.4348 -66.5424 TS 42 1001 0 8 97
1992271N26291 1992 99 NA NA EARL 1992-10-02 18:00:00 TS 27.4000 -66.1000 40 1003 hurdat_atl main 957 957 O_____________ hurdat_atl AL091992 27.4000 -66.1000 TS 40 1003 0 8 91
1992271N26291 1992 99 NA NA EARL 1992-10-02 21:00:00 TS 27.4200 -65.6350 main 980 980 P_____________ AL091992 27.4200 -65.6350 TS 37 1004 0 8 83
1992271N26291 1992 99 NA NA EARL 1992-10-03 00:00:00 TS 27.5000 -65.2000 35 1005 hurdat_atl main 1007 1007 O_____________ hurdat_atl AL091992 27.5000 -65.2000 TS 35 1005 0 7 74
1992271N26291 1992 99 NA NA EARL 1992-10-03 03:00:00 TS 27.6272 -64.8424 main 1031 1031 P_____________ AL091992 27.6272 -64.8424 TS 35 1006 0 7 64
1992271N26291 1992 99 NA NA EARL 1992-10-03 06:00:00 TS 27.8000 -64.5000 35 1007 hurdat_atl main 1056 1056 O_____________ hurdat_atl AL091992 27.8000 -64.5000 TS 35 1007 0 8 60
1992271N26291 1992 99 NA NA EARL 1992-10-03 09:00:00 TS 28.0074 -64.1076 main 1083 1083 P_____________ AL091992 28.0074 -64.1076 TS 32 1007 -1 8 60
1992271N26291 1992 99 NA NA EARL 1992-10-03 12:00:00 TS 28.2000 -63.7000 30 1008 hurdat_atl main 1112 1112 O_____________ hurdat_atl AL091992 28.2000 -63.7000 TD 30 1008 -1 8 66
1992271N26291 1992 99 NA NA EARL 1992-10-03 15:00:00 TS 28.3227 -63.2974 main 1131 1131 P_____________ AL091992 28.3227 -63.2974 TD 30 1008 -1 7 74
1992271N26291 1992 99 NA NA EARL 1992-10-03 18:00:00 ET 28.4000 -62.9000 30 1008 hurdat_atl main 1150 O_____________ hurdat_atl AL091992 28.4000 -62.9000 EX 30 1008 -4 7 78

About IBTrACS Database

This database is a web-friendly format of International Best Track Archive for Climate Stewardship (IBTrACS), a global best track data archive curated by NOAA dating back to 1842.

Updated: 2021-10-08